Time;durP1;ratioP1;P1;durP2;ratioP2;P2;SDS_P1;SDS_P2;PMS_P1;PMS_P2;Temp;Humidity;BMP_temperature;BMP_pressure;BME280_temperature;BME280_humidity;BME280_pressure;Samples;Min_cycle;Max_cycle;Signal;HPM_P1;HPM_P2
2021/12/27 00:00:39;;;;;;;11.95;6.72;;;;;;;;;;5091447;28;20020;-73
2021/12/27 00:03:06;;;;;;;10.50;6.30;;;;;;;;;;5090202;28;20036;-73
2021/12/27 00:05:32;;;;;;;13.57;7.20;;;;;;;;;;5091664;28;20028;-72
2021/12/27 00:07:58;;;;;;;11.63;6.60;;;;;;;;;;5091802;28;20052;-73
2021/12/27 00:10:25;;;;;;;12.27;6.78;;;;;;;;;;5092583;28;20118;-70
2021/12/27 00:12:52;;;;;;;12.02;6.72;;;;;;;;;;5094125;28;20073;-74
2021/12/27 00:15:18;;;;;;;12.43;6.15;;;;;;;;;;5095520;28;20047;-69
2021/12/27 00:17:44;;;;;;;13.32;7.10;;;;;;;;;;5095307;28;20044;-74
2021/12/27 00:20:13;;;;;;;12.43;6.60;;;;;;;;;;5094095;28;20027;-71
2021/12/27 00:22:39;;;;;;;12.13;6.75;;;;;;;;;;5095327;28;20028;-70
2021/12/27 00:25:05;;;;;;;12.15;6.47;;;;;;;;;;5095313;28;20049;-73
2021/12/27 00:27:31;;;;;;;10.48;6.10;;;;;;;;;;5095180;28;20150;-72
2021/12/27 00:29:58;;;;;;;11.52;6.20;;;;;;;;;;5093774;28;20031;-70
2021/12/27 00:32:24;;;;;;;10.25;6.03;;;;;;;;;;5094116;28;20012;-71
2021/12/27 00:34:50;;;;;;;9.82;6.03;;;;;;;;;;5095355;28;20024;-70
2021/12/27 00:37:16;;;;;;;10.57;5.57;;;;;;;;;;5095158;28;20475;-74
2021/12/27 00:39:42;;;;;;;10.80;6.47;;;;;;;;;;5094914;28;20098;-65
2021/12/27 00:42:08;;;;;;;14.25;6.32;;;;;;;;;;5093655;28;20028;-65
2021/12/27 00:44:34;;;;;;;12.43;6.05;;;;;;;;;;5094807;28;20038;-68
2021/12/27 00:47:01;;;;;;;10.40;5.57;;;;;;;;;;5094869;28;20046;-65
2021/12/27 00:49:28;;;;;;;11.73;5.78;;;;;;;;;;5094579;28;20119;-71
2021/12/27 00:51:54;;;;;;;9.85;5.60;;;;;;;;;;5093005;28;20028;-73
2021/12/27 00:54:20;;;;;;;12.27;5.93;;;;;;;;;;5094278;28;20016;-73
2021/12/27 00:56:46;;;;;;;11.15;5.85;;;;;;;;;;5094740;28;20020;-64
2021/12/27 00:59:12;;;;;;;12.35;5.50;;;;;;;;;;5094467;28;20034;-66
2021/12/27 01:01:39;;;;;;;10.38;5.78;;;;;;;;;;5094743;28;20066;-65
2021/12/27 01:04:06;;;;;;;16.35;6.28;;;;;;;;;;5094535;28;20059;-69
2021/12/27 01:06:32;;;;;;;11.23;5.65;;;;;;;;;;5094701;28;20520;-73
2021/12/27 01:08:58;;;;;;;14.88;6.72;;;;;;;;;;5093835;28;20031;-74
2021/12/27 01:11:27;;;;;;;11.90;6.07;;;;;;;;;;5082763;28;20109;-69
2021/12/27 01:16:27;;;;;;;17.88;6.75;;;;;;;;;;5073869;28;20027;-75
2021/12/27 01:18:53;;;;;;;10.63;4.93;;;;;;;;;;5072876;28;20025;-72
2021/12/27 01:21:21;;;;;;;11.60;5.72;;;;;;;;;;5072365;28;20066;-71
2021/12/27 01:23:48;;;;;;;15.38;6.00;;;;;;;;;;5071477;28;20036;-64
2021/12/27 01:26:14;;;;;;;15.80;6.55;;;;;;;;;;5072712;28;20054;-68
2021/12/27 01:28:41;;;;;;;13.80;5.85;;;;;;;;;;5071512;28;20048;-64
2021/12/27 01:31:07;;;;;;;10.00;5.03;;;;;;;;;;5071442;28;20046;-66
2021/12/27 01:33:33;;;;;;;15.05;5.95;;;;;;;;;;5072756;28;20021;-71
2021/12/27 01:36:00;;;;;;;10.75;5.65;;;;;;;;;;5072599;28;20020;-66
2021/12/27 01:38:26;;;;;;;11.43;5.45;;;;;;;;;;5072369;28;20066;-64
2021/12/27 01:40:53;;;;;;;12.82;5.22;;;;;;;;;;5072630;28;20443;-66
2021/12/27 01:43:21;;;;;;;15.85;5.97;;;;;;;;;;5072479;28;20400;-66
2021/12/27 01:45:49;;;;;;;11.43;5.45;;;;;;;;;;5072918;28;20107;-69
2021/12/27 01:48:19;;;;;;;12.90;5.22;;;;;;;;;;5072312;28;20115;-68
2021/12/27 01:50:46;;;;;;;12.52;5.80;;;;;;;;;;5072121;28;20021;-71
2021/12/27 01:53:13;;;;;;;10.65;5.90;;;;;;;;;;5072320;28;20028;-74
2021/12/27 01:55:39;;;;;;;11.38;5.30;;;;;;;;;;5072066;28;20500;-66
2021/12/27 01:58:06;;;;;;;8.23;5.10;;;;;;;;;;5072087;28;20047;-65
2021/12/27 02:00:33;;;;;;;11.35;5.72;;;;;;;;;;5072413;28;20025;-67
2021/12/27 02:02:59;;;;;;;11.48;6.15;;;;;;;;;;5070994;28;20389;-70
2021/12/27 02:05:25;;;;;;;10.82;6.40;;;;;;;;;;5072230;28;20035;-67
2021/12/27 02:07:51;;;;;;;11.57;5.80;;;;;;;;;;5070874;28;20116;-74
2021/12/27 02:10:17;;;;;;;9.75;5.43;;;;;;;;;;5087566;28;20024;-69
2021/12/27 02:12:44;;;;;;;12.45;6.10;;;;;;;;;;5071640;28;20017;-72
2021/12/27 02:15:10;;;;;;;10.15;5.70;;;;;;;;;;5071754;28;20016;-74
2021/12/27 02:17:39;;;;;;;11.73;6.13;;;;;;;;;;5023459;28;1387011;-70
2021/12/27 02:20:10;;;;;;;10.82;5.82;;;;;;;;;;5088349;28;20028;-73
2021/12/27 02:22:39;;;;;;;8.45;5.03;;;;;;;;;;5072675;28;20033;-71
2021/12/27 02:25:05;;;;;;;13.05;6.63;;;;;;;;;;5088397;28;20017;-67
2021/12/27 02:27:32;;;;;;;12.23;6.28;;;;;;;;;;5088187;28;20114;-65
2021/12/27 02:29:58;;;;;;;9.85;5.10;;;;;;;;;;5072593;28;20091;-66
2021/12/27 02:32:24;;;;;;;11.52;6.10;;;;;;;;;;5072012;28;20024;-67
2021/12/27 02:34:50;;;;;;;9.93;5.97;;;;;;;;;;5087698;28;20035;-72
2021/12/27 02:37:16;;;;;;;11.05;5.65;;;;;;;;;;5081172;28;20030;-68
2021/12/27 02:39:44;;;;;;;9.32;5.65;;;;;;;;;;5090092;28;20525;-72
2021/12/27 02:42:10;;;;;;;10.85;6.07;;;;;;;;;;5091511;28;20031;-66
2021/12/27 02:44:36;;;;;;;11.98;5.85;;;;;;;;;;5071308;28;20031;-73
2021/12/27 02:47:02;;;;;;;12.43;6.50;;;;;;;;;;5070993;28;20056;-65
2021/12/27 02:49:28;;;;;;;11.35;6.45;;;;;;;;;;5072150;28;20046;-66
2021/12/27 02:51:54;;;;;;;10.73;6.20;;;;;;;;;;5072231;28;20021;-68
2021/12/27 02:54:20;;;;;;;9.15;5.32;;;;;;;;;;5072136;28;20032;-69
2021/12/27 02:56:48;;;;;;;10.80;6.10;;;;;;;;;;5072248;28;20021;-64
2021/12/27 02:59:14;;;;;;;9.75;6.15;;;;;;;;;;5072068;28;20031;-75
2021/12/27 03:01:40;;;;;;;16.48;6.30;;;;;;;;;;5072056;28;20493;-71
2021/12/27 03:04:06;;;;;;;11.48;5.57;;;;;;;;;;5072052;28;20509;-71
2021/12/27 03:06:32;;;;;;;9.85;5.45;;;;;;;;;;5072008;28;20416;-71
2021/12/27 03:08:58;;;;;;;9.98;5.70;;;;;;;;;;5072617;28;20035;-67
2021/12/27 03:11:24;;;;;;;11.23;6.55;;;;;;;;;;5092106;28;20047;-67
2021/12/27 03:13:51;;;;;;;10.63;6.30;;;;;;;;;;5092058;28;20012;-65
2021/12/27 03:16:18;;;;;;;10.05;6.20;;;;;;;;;;5090856;28;20020;-72
2021/12/27 03:18:46;;;;;;;12.35;6.38;;;;;;;;;;5091739;28;20455;-64
2021/12/27 03:21:13;;;;;;;11.65;6.13;;;;;;;;;;5090295;28;20118;-68
2021/12/27 03:23:40;;;;;;;11.65;6.22;;;;;;;;;;5091769;28;20028;-75
2021/12/27 03:26:06;;;;;;;11.23;5.97;;;;;;;;;;5092032;28;20021;-73
2021/12/27 03:28:33;;;;;;;10.07;5.43;;;;;;;;;;5091912;28;20047;-74
2021/12/27 03:31:00;;;;;;;10.80;6.18;;;;;;;;;;5091930;28;20024;-68
2021/12/27 03:33:26;;;;;;;10.88;6.28;;;;;;;;;;5090497;28;20020;-72
2021/12/27 03:36:03;;;;;;;10.23;6.20;;;;;;;;;;5091821;28;20020;-73
2021/12/27 03:38:32;;;;;;;9.80;5.90;;;;;;;;;;5091613;28;20024;-71
2021/12/27 03:40:58;;;;;;;10.32;6.35;;;;;;;;;;5091569;28;20020;-64
2021/12/27 03:43:24;;;;;;;9.77;6.15;;;;;;;;;;5091483;28;20036;-68
2021/12/27 03:45:50;;;;;;;10.70;6.50;;;;;;;;;;5091580;28;20503;-68
2021/12/27 03:48:16;;;;;;;10.55;6.38;;;;;;;;;;5091559;28;20028;-64
2021/12/27 03:50:43;;;;;;;11.23;6.13;;;;;;;;;;5090043;28;20051;-64
2021/12/27 03:53:09;;;;;;;12.50;6.43;;;;;;;;;;5091585;28;20066;-71
2021/12/27 03:55:35;;;;;;;11.60;6.40;;;;;;;;;;5091401;28;20012;-73
2021/12/27 03:58:47;;;;;;;8.15;5.22;;;;;;;;;;5090287;28;20484;-71
2021/12/27 04:03:21;;;;;;;9.07;5.38;;;;;;;;;;5091442;28;20066;-67
2021/12/27 04:05:47;;;;;;;9.35;5.28;;;;;;;;;;5090117;28;20119;-65
2021/12/27 04:08:16;;;;;;;11.65;6.07;;;;;;;;;;5092081;28;20430;-75
2021/12/27 04:10:42;;;;;;;9.48;5.90;;;;;;;;;;5091157;28;20108;-70
2021/12/27 04:13:09;;;;;;;9.68;5.53;;;;;;;;;;5091287;28;20032;-75
2021/12/27 04:15:36;;;;;;;10.70;6.10;;;;;;;;;;5091038;28;20021;-73
2021/12/27 04:18:03;;;;;;;11.55;6.05;;;;;;;;;;5090846;28;20509;-69
2021/12/27 04:20:29;;;;;;;11.43;6.30;;;;;;;;;;5090073;28;20050;-68
2021/12/27 04:22:56;;;;;;;11.02;5.43;;;;;;;;;;5091335;28;20034;-67
2021/12/27 04:25:22;;;;;;;10.30;6.45;;;;;;;;;;5091117;28;20016;-72
2021/12/27 04:27:49;;;;;;;11.38;6.40;;;;;;;;;;5090875;28;20032;-69
2021/12/27 04:30:16;;;;;;;9.95;5.40;;;;;;;;;;5091106;28;20465;-73
2021/12/27 04:32:42;;;;;;;10.15;5.78;;;;;;;;;;5089913;28;20024;-69
2021/12/27 04:35:08;;;;;;;9.13;5.68;;;;;;;;;;5091295;28;20063;-71
2021/12/27 04:37:34;;;;;;;10.20;5.63;;;;;;;;;;5089656;28;20500;-68
2021/12/27 04:40:01;;;;;;;8.65;5.20;;;;;;;;;;5090719;28;20081;-68
2021/12/27 04:42:30;;;;;;;9.25;5.30;;;;;;;;;;5089650;28;20024;-69
2021/12/27 04:44:56;;;;;;;10.30;6.07;;;;;;;;;;5090997;28;20338;-68
2021/12/27 04:47:22;;;;;;;11.27;5.43;;;;;;;;;;5090833;28;20107;-69
2021/12/27 04:49:48;;;;;;;10.57;6.32;;;;;;;;;;5089674;28;20020;-69
2021/12/27 04:52:15;;;;;;;11.65;5.63;;;;;;;;;;5089399;28;20020;-72
2021/12/27 04:54:41;;;;;;;10.70;5.30;;;;;;;;;;5089531;28;20118;-71
2021/12/27 04:57:07;;;;;;;10.15;6.00;;;;;;;;;;5092720;28;20016;-75
2021/12/27 04:59:34;;;;;;;7.55;4.60;;;;;;;;;;5094433;28;20023;-75
2021/12/27 05:02:00;;;;;;;9.27;5.50;;;;;;;;;;5094342;28;20027;-65
2021/12/27 05:04:26;;;;;;;9.52;5.32;;;;;;;;;;5093371;28;20070;-67
2021/12/27 05:06:52;;;;;;;10.45;5.40;;;;;;;;;;5094640;28;20023;-64
2021/12/27 05:09:18;;;;;;;8.60;5.25;;;;;;;;;;5091715;28;20028;-72
2021/12/27 05:11:44;;;;;;;8.82;5.25;;;;;;;;;;5094420;28;20480;-65
2021/12/27 05:14:11;;;;;;;10.25;5.70;;;;;;;;;;5094214;28;20106;-67
2021/12/27 05:16:37;;;;;;;9.93;5.88;;;;;;;;;;5094394;28;20020;-70
2021/12/27 05:19:03;;;;;;;9.90;5.95;;;;;;;;;;5094185;28;20036;-72
2021/12/27 05:21:29;;;;;;;8.70;5.18;;;;;;;;;;5093212;28;20107;-68
2021/12/27 05:23:55;;;;;;;8.98;5.68;;;;;;;;;;5094351;28;20035;-67
2021/12/27 05:26:21;;;;;;;11.50;5.85;;;;;;;;;;5093007;28;20451;-66
2021/12/27 05:28:47;;;;;;;12.18;6.10;;;;;;;;;;5094289;28;20051;-77
2021/12/27 05:31:13;;;;;;;8.88;5.22;;;;;;;;;;5094386;28;20066;-72
2021/12/27 05:33:40;;;;;;;10.63;5.95;;;;;;;;;;5094253;28;20061;-73
2021/12/27 05:36:06;;;;;;;9.40;5.35;;;;;;;;;;5092994;28;20028;-68
2021/12/27 05:38:32;;;;;;;10.18;5.50;;;;;;;;;;5094098;28;20047;-66
2021/12/27 05:40:58;;;;;;;8.48;5.40;;;;;;;;;;5094089;28;20027;-70
2021/12/27 05:43:24;;;;;;;11.13;5.82;;;;;;;;;;5093771;28;20040;-71
2021/12/27 05:45:51;;;;;;;9.85;5.60;;;;;;;;;;5093943;28;20027;-72
2021/12/27 05:48:17;;;;;;;9.15;5.10;;;;;;;;;;5093724;28;20031;-76
2021/12/27 05:50:43;;;;;;;9.15;5.18;;;;;;;;;;5093920;28;20020;-75
2021/12/27 05:53:10;;;;;;;10.57;6.05;;;;;;;;;;5092429;28;20119;-70
2021/12/27 05:55:36;;;;;;;12.27;5.68;;;;;;;;;;5093584;28;20027;-64
2021/12/27 05:58:04;;;;;;;11.60;6.00;;;;;;;;;;5093566;28;20477;-76
2021/12/27 06:00:30;;;;;;;10.63;5.70;;;;;;;;;;5092749;28;20036;-69
2021/12/27 06:02:57;;;;;;;8.88;5.13;;;;;;;;;;5093685;28;20048;-73
2021/12/27 06:05:24;;;;;;;9.40;5.28;;;;;;;;;;5094093;28;20053;-70
2021/12/27 06:07:50;;;;;;;10.20;4.90;;;;;;;;;;5092622;28;20020;-72
2021/12/27 06:10:17;;;;;;;10.93;5.85;;;;;;;;;;5093986;28;20035;-71
2021/12/27 06:12:43;;;;;;;11.32;5.78;;;;;;;;;;5092698;28;20538;-65
2021/12/27 06:15:09;;;;;;;10.15;5.65;;;;;;;;;;5093920;28;20028;-67
2021/12/27 06:17:37;;;;;;;9.80;5.68;;;;;;;;;;5093640;28;20040;-66
2021/12/27 06:20:04;;;;;;;9.55;5.55;;;;;;;;;;5093605;28;20021;-65
2021/12/27 06:22:31;;;;;;;10.90;5.60;;;;;;;;;;5093683;28;20103;-64
2021/12/27 06:25:03;;;;;;;9.98;5.68;;;;;;;;;;5093352;28;20028;-72
2021/12/27 06:27:29;;;;;;;9.75;5.35;;;;;;;;;;5092059;28;20028;-73
2021/12/27 06:29:55;;;;;;;10.43;5.85;;;;;;;;;;5093413;28;20031;-73
2021/12/27 06:32:21;;;;;;;9.13;5.85;;;;;;;;;;5093680;28;20048;-71
2021/12/27 06:34:47;;;;;;;9.43;5.50;;;;;;;;;;5093442;28;20044;-66
2021/12/27 06:37:13;;;;;;;10.07;5.72;;;;;;;;;;5091669;28;20066;-64
2021/12/27 06:39:39;;;;;;;9.98;5.38;;;;;;;;;;5093124;28;20020;-63
2021/12/27 06:42:06;;;;;;;9.07;5.57;;;;;;;;;;5092992;28;20107;-70
2021/12/27 06:44:33;;;;;;;11.35;5.97;;;;;;;;;;5091299;28;20028;-72
2021/12/27 06:46:59;;;;;;;11.57;6.65;;;;;;;;;;5091251;28;20436;-75
2021/12/27 06:49:27;;;;;;;11.45;6.00;;;;;;;;;;5092777;28;20373;-67
2021/12/27 06:51:53;;;;;;;11.25;5.93;;;;;;;;;;5093192;28;20058;-71
2021/12/27 06:54:19;;;;;;;11.07;5.72;;;;;;;;;;5092876;28;20077;-74
2021/12/27 06:56:45;;;;;;;8.55;5.47;;;;;;;;;;5092662;28;20465;-69
2021/12/27 06:59:12;;;;;;;9.82;5.90;;;;;;;;;;5091681;28;20120;-65
2021/12/27 07:01:38;;;;;;;15.05;6.38;;;;;;;;;;5091255;28;20435;-72
2021/12/27 07:04:04;;;;;;;9.65;5.70;;;;;;;;;;5092628;28;20032;-74
2021/12/27 07:06:31;;;;;;;9.13;5.25;;;;;;;;;;5092356;28;20600;-70
2021/12/27 07:08:57;;;;;;;8.73;5.22;;;;;;;;;;5092615;28;20032;-66
2021/12/27 07:11:23;;;;;;;8.50;5.38;;;;;;;;;;5074176;28;20103;-69
2021/12/27 07:13:49;;;;;;;10.68;5.32;;;;;;;;;;5072156;28;20024;-68
2021/12/27 07:16:15;;;;;;;9.48;5.93;;;;;;;;;;5072128;28;20036;-74
2021/12/27 07:18:41;;;;;;;9.82;5.20;;;;;;;;;;5071560;28;20052;-74
2021/12/27 07:21:07;;;;;;;10.18;5.93;;;;;;;;;;5072531;28;20024;-70
2021/12/27 07:23:34;;;;;;;14.32;5.50;;;;;;;;;;5072170;28;20039;-70
2021/12/27 07:26:00;;;;;;;9.27;5.45;;;;;;;;;;5071819;28;20027;-68
2021/12/27 07:28:26;;;;;;;19.48;5.70;;;;;;;;;;5071869;28;20028;-73
2021/12/27 07:30:52;;;;;;;9.63;5.22;;;;;;;;;;5071848;28;20019;-74
2021/12/27 07:33:18;;;;;;;10.65;5.05;;;;;;;;;;5071802;28;20052;-64
2021/12/27 07:35:44;;;;;;;14.57;5.20;;;;;;;;;;5070415;28;20070;-66
2021/12/27 07:38:10;;;;;;;9.63;5.38;;;;;;;;;;5072063;28;20023;-71
2021/12/27 07:40:36;;;;;;;8.88;4.90;;;;;;;;;;5072327;28;20016;-72
2021/12/27 07:43:03;;;;;;;8.65;5.15;;;;;;;;;;5071948;28;20036;-75
2021/12/27 07:45:29;;;;;;;9.15;5.07;;;;;;;;;;5070454;28;20481;-70
2021/12/27 07:47:56;;;;;;;11.13;4.95;;;;;;;;;;5071442;28;20028;-67
2021/12/27 07:50:22;;;;;;;9.30;5.25;;;;;;;;;;5071758;28;20048;-69
2021/12/27 07:52:50;;;;;;;8.77;4.88;;;;;;;;;;5071644;28;20024;-67
2021/12/27 07:58:01;;;;;;;9.85;5.65;;;;;;;;;;5071361;28;20038;-71
2021/12/27 08:00:27;;;;;;;9.15;5.07;;;;;;;;;;5070158;28;20119;-68
2021/12/27 08:02:54;;;;;;;8.57;5.10;;;;;;;;;;5070015;28;20024;-68
2021/12/27 08:05:20;;;;;;;11.40;6.40;;;;;;;;;;5071351;28;20024;-74
2021/12/27 08:07:46;;;;;;;7.13;4.55;;;;;;;;;;5071212;28;20017;-71
2021/12/27 08:10:14;;;;;;;8.15;5.13;;;;;;;;;;5071218;28;20025;-74
2021/12/27 08:12:41;;;;;;;10.65;5.40;;;;;;;;;;5071288;28;20009;-65
2021/12/27 08:15:07;;;;;;;7.35;4.03;;;;;;;;;;5071297;28;20063;-71
2021/12/27 08:17:34;;;;;;;10.50;5.18;;;;;;;;;;5071686;28;20041;-68
2021/12/27 08:20:00;;;;;;;8.40;4.47;;;;;;;;;;5071799;28;20013;-68
2021/12/27 08:22:26;;;;;;;10.80;5.90;;;;;;;;;;5070955;28;20037;-68
2021/12/27 08:24:52;;;;;;;11.30;5.68;;;;;;;;;;5071349;28;20067;-77
2021/12/27 08:27:20;;;;;;;17.20;5.82;;;;;;;;;;5069847;28;20017;-67
2021/12/27 08:29:46;;;;;;;15.27;5.43;;;;;;;;;;5080658;28;20059;-72
2021/12/27 08:32:12;;;;;;;16.95;4.55;;;;;;;;;;5093858;28;20065;-76
2021/12/27 08:34:38;;;;;;;22.73;5.82;;;;;;;;;;5094041;28;20115;-81
2021/12/27 08:37:04;;;;;;;16.73;5.00;;;;;;;;;;5094027;28;20024;-73
2021/12/27 08:39:31;;;;;;;15.10;4.35;;;;;;;;;;5094868;28;20017;-72
2021/12/27 08:41:57;;;;;;;10.55;5.25;;;;;;;;;;5093453;28;20434;-71
2021/12/27 08:44:23;;;;;;;18.02;6.30;;;;;;;;;;5095460;28;20089;-71
2021/12/27 08:46:49;;;;;;;14.63;6.07;;;;;;;;;;5097074;28;20073;-71
2021/12/27 08:49:16;;;;;;;12.70;6.35;;;;;;;;;;5094012;28;20495;-75
2021/12/27 08:51:42;;;;;;;12.85;5.80;;;;;;;;;;5093728;28;20020;-67
2021/12/27 08:54:08;;;;;;;12.27;5.15;;;;;;;;;;5092285;28;20101;-64
2021/12/27 08:56:34;;;;;;;8.25;4.30;;;;;;;;;;5093964;28;20110;-77
2021/12/27 08:59:00;;;;;;;13.50;4.70;;;;;;;;;;5093894;28;20455;-65
2021/12/27 09:01:27;;;;;;;14.50;4.65;;;;;;;;;;5092727;28;20028;-68
2021/12/27 09:03:53;;;;;;;15.38;5.68;;;;;;;;;;5094663;28;20114;-68
2021/12/27 09:06:20;;;;;;;18.05;5.85;;;;;;;;;;5094569;28;20491;-69
2021/12/27 09:08:46;;;;;;;24.50;5.82;;;;;;;;;;5092801;28;20524;-65
2021/12/27 09:11:12;;;;;;;21.02;6.28;;;;;;;;;;5079323;28;20054;-72
2021/12/27 09:13:38;;;;;;;22.95;6.45;;;;;;;;;;5073987;28;20028;-76
2021/12/27 09:16:05;;;;;;;19.88;5.57;;;;;;;;;;5080628;28;20024;-76
2021/12/27 09:18:32;;;;;;;15.05;5.25;;;;;;;;;;5073633;28;20451;-64
2021/12/27 09:20:58;;;;;;;11.82;6.00;;;;;;;;;;5073524;28;20024;-71
2021/12/27 09:23:24;;;;;;;13.77;5.30;;;;;;;;;;5073591;28;20040;-65
2021/12/27 09:25:51;;;;;;;18.73;5.22;;;;;;;;;;5074884;28;20021;-66
2021/12/27 09:28:17;;;;;;;17.17;4.82;;;;;;;;;;5093925;28;20035;-78
2021/12/27 09:30:43;;;;;;;11.20;4.88;;;;;;;;;;5090937;28;20447;-67
2021/12/27 09:33:09;;;;;;;9.63;4.15;;;;;;;;;;5092055;28;20510;-67
2021/12/27 09:35:36;;;;;;;13.40;5.30;;;;;;;;;;5093109;28;20016;-66
2021/12/27 09:38:02;;;;;;;13.50;4.55;;;;;;;;;;5093282;28;20035;-65
2021/12/27 09:40:28;;;;;;;11.00;5.45;;;;;;;;;;5093147;28;20099;-79
2021/12/27 09:42:55;;;;;;;9.65;4.25;;;;;;;;;;5092857;28;20034;-73
2021/12/27 09:45:22;;;;;;;7.80;3.53;;;;;;;;;;5093414;28;20016;-85
2021/12/27 09:47:50;;;;;;;9.45;4.18;;;;;;;;;;5094440;28;20103;-69
2021/12/27 09:50:22;;;;;;;12.60;3.88;;;;;;;;;;5094610;28;20015;-76
2021/12/27 09:52:49;;;;;;;14.45;4.32;;;;;;;;;;5094609;28;20024;-77
2021/12/27 09:55:16;;;;;;;8.75;4.10;;;;;;;;;;5093354;28;20023;-81
2021/12/27 09:57:42;;;;;;;11.40;3.60;;;;;;;;;;5091563;28;20047;-82
2021/12/27 10:00:08;;;;;;;9.02;4.00;;;;;;;;;;5093383;28;20073;-64
2021/12/27 10:02:38;;;;;;;8.40;3.78;;;;;;;;;;5093215;28;20111;-79
2021/12/27 10:05:05;;;;;;;11.13;3.78;;;;;;;;;;5093092;28;20056;-78
2021/12/27 10:07:31;;;;;;;9.82;3.70;;;;;;;;;;5091654;28;20498;-76
2021/12/27 10:09:59;;;;;;;7.80;3.92;;;;;;;;;;5092646;28;20517;-74
2021/12/27 10:12:26;;;;;;;10.35;4.10;;;;;;;;;;5093080;28;20389;-65
2021/12/27 10:14:56;;;;;;;12.02;4.63;;;;;;;;;;5093707;28;20480;-72
2021/12/27 10:17:23;;;;;;;8.20;4.30;;;;;;;;;;5093349;28;20047;-75
2021/12/27 10:19:50;;;;;;;7.47;4.05;;;;;;;;;;5093517;28;20016;-71
2021/12/27 10:22:16;;;;;;;12.10;4.55;;;;;;;;;;5093187;28;20017;-71
2021/12/27 10:24:42;;;;;;;7.90;4.32;;;;;;;;;;5093418;28;20469;-73
2021/12/27 10:27:08;;;;;;;7.78;4.40;;;;;;;;;;5092794;28;20020;-71
2021/12/27 10:29:36;;;;;;;10.73;4.95;;;;;;;;;;5092885;28;20122;-75
2021/12/27 10:32:05;;;;;;;8.70;4.25;;;;;;;;;;5092879;28;20386;-72
2021/12/27 10:34:33;;;;;;;9.07;4.57;;;;;;;;;;5088420;28;20081;-75
2021/12/27 10:37:10;;;;;;;9.15;3.85;;;;;;;;;;5090689;28;20024;-71
2021/12/27 10:39:48;;;;;;;10.77;4.40;;;;;;;;;;5092369;28;20032;-74
2021/12/27 10:42:15;;;;;;;7.53;3.78;;;;;;;;;;5092748;28;20081;-75
2021/12/27 10:44:41;;;;;;;8.35;3.83;;;;;;;;;;5092730;28;20085;-71
2021/12/27 10:47:25;;;;;;;8.40;4.28;;;;;;;;;;5086648;28;20073;-86
2021/12/27 10:49:51;;;;;;;8.48;4.43;;;;;;;;;;5090416;28;20023;-77
2021/12/27 10:52:17;;;;;;;8.68;4.15;;;;;;;;;;5091964;28;20404;-79
2021/12/27 10:54:43;;;;;;;11.32;4.90;;;;;;;;;;5086137;28;20020;-69
2021/12/27 10:57:09;;;;;;;9.32;4.28;;;;;;;;;;5090589;28;20020;-67
2021/12/27 10:59:35;;;;;;;10.20;4.32;;;;;;;;;;5086079;28;20034;-77
2021/12/27 11:02:13;;;;;;;13.55;4.35;;;;;;;;;;5086856;28;20130;-66
2021/12/27 11:04:40;;;;;;;8.10;3.95;;;;;;;;;;5100444;28;20051;-82
2021/12/27 11:07:07;;;;;;;6.75;3.55;;;;;;;;;;5092600;28;20039;-75
2021/12/27 11:09:33;;;;;;;9.00;4.30;;;;;;;;;;5089156;28;20046;-82
2021/12/27 11:12:00;;;;;;;8.93;4.18;;;;;;;;;;5088324;28;20023;-66
2021/12/27 11:14:26;;;;;;;13.60;4.63;;;;;;;;;;5088139;28;20016;-76
2021/12/27 11:16:53;;;;;;;11.35;4.72;;;;;;;;;;5092089;28;20511;-78
2021/12/27 11:19:19;;;;;;;9.50;4.63;;;;;;;;;;5090921;28;20070;-87
2021/12/27 11:21:48;;;;;;;10.00;3.95;;;;;;;;;;5086746;28;20146;-72
2021/12/27 11:24:14;;;;;;;13.80;3.92;;;;;;;;;;5091353;28;20059;-78
2021/12/27 11:26:41;;;;;;;12.52;4.40;;;;;;;;;;5088454;28;20020;-66
2021/12/27 11:29:10;;;;;;;9.52;4.28;;;;;;;;;;5090849;28;20472;-70
2021/12/27 11:31:38;;;;;;;10.20;4.78;;;;;;;;;;5091804;28;20112;-73
2021/12/27 11:34:05;;;;;;;9.32;3.92;;;;;;;;;;5091510;28;20681;-66
2021/12/27 11:36:35;;;;;;;9.32;4.22;;;;;;;;;;5091330;28;20031;-71
2021/12/27 11:39:17;;;;;;;8.52;4.35;;;;;;;;;;5090199;28;20062;-79
2021/12/27 11:41:43;;;;;;;6.50;3.22;;;;;;;;;;5091074;28;20051;-76
2021/12/27 11:44:17;;;;;;;9.10;4.35;;;;;;;;;;5089141;28;20126;-69
2021/12/27 11:46:49;;;;;;;11.25;4.88;;;;;;;;;;5090625;28;20024;-64
2021/12/27 11:49:16;;;;;;;11.38;4.35;;;;;;;;;;5091315;28;20028;-74
2021/12/27 11:51:43;;;;;;;12.32;4.50;;;;;;;;;;5091078;28;20028;-68
2021/12/27 11:54:27;;;;;;;11.38;4.15;;;;;;;;;;5089657;28;20042;-64
2021/12/27 11:56:54;;;;;;;9.13;3.47;;;;;;;;;;5089860;28;20052;-87
2021/12/27 11:59:23;;;;;;;8.27;3.90;;;;;;;;;;5091387;28;20032;-72
2021/12/27 12:01:50;;;;;;;8.40;3.92;;;;;;;;;;5090811;28;20107;-73
2021/12/27 12:04:34;;;;;;;13.35;4.40;;;;;;;;;;5090787;28;20120;-76
2021/12/27 12:07:01;;;;;;;8.18;4.13;;;;;;;;;;5095237;28;20518;-79
2021/12/27 12:09:27;;;;;;;8.48;4.03;;;;;;;;;;5095244;28;20048;-83
2021/12/27 12:12:04;;;;;;;10.57;4.00;;;;;;;;;;5094207;28;20067;-78
2021/12/27 12:14:34;;;;;;;13.60;4.10;;;;;;;;;;5096085;28;20031;-82
2021/12/27 12:17:05;;;;;;;8.07;3.92;;;;;;;;;;5091241;28;20712;-82
2021/12/27 12:19:45;;;;;;;18.65;4.25;;;;;;;;;;5093759;28;20020;-78
2021/12/27 12:22:30;;;;;;;15.13;4.20;;;;;;;;;;5093436;28;20020;-77
2021/12/27 12:25:18;;;;;;;11.05;4.00;;;;;;;;;;5094269;28;20400;-83
2021/12/27 12:27:51;;;;;;;12.90;4.07;;;;;;;;;;5094517;28;20162;-78
2021/12/27 12:30:17;;;;;;;10.63;4.43;;;;;;;;;;5095412;28;20031;-67
2021/12/27 12:33:03;;;;;;;9.40;3.50;;;;;;;;;;5094830;28;20050;-79
2021/12/27 12:35:33;;;;;;;12.05;4.35;;;;;;;;;;5094725;28;20178;-84
2021/12/27 12:38:13;;;;;;;8.30;3.60;;;;;;;;;;5097918;28;20052;-77
2021/12/27 12:40:40;;;;;;;7.80;3.83;;;;;;;;;;5095146;28;20058;-67
2021/12/27 12:43:06;;;;;;;7.85;4.03;;;;;;;;;;5096234;28;20495;-87
2021/12/27 12:45:32;;;;;;;9.88;3.88;;;;;;;;;;5095835;28;20028;-86
2021/12/27 12:47:59;;;;;;;14.00;3.97;;;;;;;;;;5095980;28;20024;-75
2021/12/27 12:50:25;;;;;;;9.88;3.53;;;;;;;;;;5095932;28;20103;-82
2021/12/27 12:52:55;;;;;;;10.02;3.60;;;;;;;;;;5096028;28;20491;-83
2021/12/27 12:55:27;;;;;;;11.18;3.55;;;;;;;;;;5095046;28;20028;-84
2021/12/27 12:57:53;;;;;;;11.40;3.88;;;;;;;;;;5096538;28;20020;-79
2021/12/27 13:00:23;;;;;;;14.23;3.40;;;;;;;;;;5095770;28;20028;-74
2021/12/27 13:02:49;;;;;;;11.98;3.95;;;;;;;;;;5094535;28;20380;-71
2021/12/27 13:05:15;;;;;;;8.75;3.33;;;;;;;;;;5095202;28;20054;-80
2021/12/27 13:07:46;;;;;;;14.63;3.88;;;;;;;;;;5095023;28;20023;-77
2021/12/27 13:10:18;;;;;;;11.68;4.15;;;;;;;;;;5085303;28;20021;-71
2021/12/27 13:12:45;;;;;;;17.52;4.57;;;;;;;;;;5078377;28;20013;-75
2021/12/27 13:15:17;;;;;;;7.95;3.55;;;;;;;;;;5090100;28;20357;-78
2021/12/27 13:17:43;;;;;;;14.35;4.22;;;;;;;;;;5091304;28;20050;-76
2021/12/27 13:20:10;;;;;;;8.35;3.63;;;;;;;;;;5097260;28;20024;-78
2021/12/27 13:22:54;;;;;;;8.80;3.85;;;;;;;;;;5095434;28;20060;-75
2021/12/27 13:25:39;;;;;;;8.45;3.78;;;;;;;;;;5093008;28;20027;-68
2021/12/27 13:28:08;;;;;;;7.07;4.00;;;;;;;;;;5092533;28;20019;-83
2021/12/27 13:30:44;;;;;;;9.13;4.18;;;;;;;;;;5092590;28;20081;-78
2021/12/27 13:33:11;;;;;;;10.18;4.20;;;;;;;;;;5089782;28;20105;-71
2021/12/27 13:35:37;;;;;;;6.78;3.80;;;;;;;;;;5090852;28;20023;-82
2021/12/27 13:38:03;;;;;;;10.15;4.13;;;;;;;;;;5090233;28;20389;-74
2021/12/27 13:40:29;;;;;;;7.85;3.90;;;;;;;;;;5090606;28;20149;-75
2021/12/27 13:43:02;;;;;;;10.98;4.10;;;;;;;;;;5090135;28;20024;-68
2021/12/27 13:45:39;;;;;;;10.10;4.65;;;;;;;;;;5090688;28;20054;-80
2021/12/27 13:48:05;;;;;;;12.52;4.50;;;;;;;;;;5092032;28;20415;-65
2021/12/27 13:50:32;;;;;;;10.30;4.15;;;;;;;;;;5093121;28;20028;-68
2021/12/27 13:52:59;;;;;;;8.77;3.95;;;;;;;;;;5092279;28;20024;-66
2021/12/27 13:55:29;;;;;;;9.75;4.70;;;;;;;;;;5093776;28;20389;-66
2021/12/27 13:57:55;;;;;;;15.38;4.30;;;;;;;;;;5093611;28;20049;-69
2021/12/27 14:00:26;;;;;;;14.77;4.28;;;;;;;;;;5074279;28;20024;-82
2021/12/27 14:02:53;;;;;;;9.48;4.22;;;;;;;;;;5082049;28;20390;-72
2021/12/27 14:05:24;;;;;;;11.90;4.30;;;;;;;;;;5093886;28;20212;-70
2021/12/27 14:07:50;;;;;;;19.40;5.22;;;;;;;;;;5093204;28;20031;-86
2021/12/27 14:10:20;;;;;;;16.25;5.13;;;;;;;;;;5091651;28;20473;-80
2021/12/27 14:12:55;;;;;;;11.20;4.35;;;;;;;;;;5093701;28;20027;-73
2021/12/27 14:15:26;;;;;;;11.30;4.20;;;;;;;;;;5092746;28;20024;-72
2021/12/27 14:17:53;;;;;;;8.30;4.18;;;;;;;;;;5093300;28;20040;-66
2021/12/27 14:20:19;;;;;;;10.40;4.47;;;;;;;;;;5092040;28;20059;-65
2021/12/27 14:22:46;;;;;;;11.40;5.13;;;;;;;;;;5093115;28;20028;-68
2021/12/27 14:25:13;;;;;;;9.50;3.85;;;;;;;;;;5093536;28;20032;-84
2021/12/27 14:27:47;;;;;;;12.93;4.80;;;;;;;;;;5076383;28;20021;-72
2021/12/27 14:30:18;;;;;;;12.50;4.18;;;;;;;;;;5072271;28;20408;-82
2021/12/27 14:32:46;;;;;;;9.10;4.30;;;;;;;;;;5073130;28;20030;-75
2021/12/27 14:35:20;;;;;;;9.80;4.75;;;;;;;;;;5073322;28;20046;-69
2021/12/27 14:37:46;;;;;;;10.63;4.90;;;;;;;;;;5073419;28;20025;-66
2021/12/27 14:40:12;;;;;;;9.23;4.70;;;;;;;;;;5073384;28;20381;-73
2021/12/27 14:42:38;;;;;;;11.80;5.85;;;;;;;;;;5077246;28;20028;-80
2021/12/27 14:45:06;;;;;;;11.35;5.32;;;;;;;;;;5073204;28;20032;-79